RYR3TJ LICA-LIMC
Flight info
| Callsign | RYR3TJ |
|---|---|
| Flight time | 1h 34m |
| Altitude | 36000 |
| Route | ARBUM DCT EVINO DCT PNZ DCT RIFFI DCT ELVIN DCT LUNAK DCT RAVAL DCT MEDAL DCT GILIO DCT UPDIN DCT SPEZI DCT IDONA DCT MEBUR |
| Aircraft | B738/M-SDE2E3FGHIRWXY/LB1 |
Departure
| Time | 2026-04-21 19:33 |
|---|---|
| Airport | Lamezia Terme Sant'Eufemia International Airport (LICA) |
Arrival
| Time | 2026-04-21 21:08 |
|---|---|
| Airport | Milan Malpensa International Airport (LIMC) |
| Time | Latitude | Longitude | Altitude | Speed | Heading |
|---|---|---|---|---|---|
| 2026-04-21 19:00 | 38.90870 | 16.24532 | 31 ft | 0 kts | 56° |
| 2026-04-21 19:27 | 38.90869 | 16.24535 | 31 ft | 0 kts | 77° |
| 2026-04-21 19:27 | 38.90856 | 16.24549 | 31 ft | 6 kts | 170° |
| 2026-04-21 19:28 | 38.90811 | 16.24550 | 29 ft | 8 kts | 126° |
| 2026-04-21 19:28 | 38.90794 | 16.24611 | 31 ft | 7 kts | 89° |
| 2026-04-21 19:28 | 38.90783 | 16.24711 | 31 ft | 15 kts | 102° |
| 2026-04-21 19:28 | 38.90765 | 16.24839 | 31 ft | 15 kts | 96° |
| 2026-04-21 19:29 | 38.90755 | 16.24965 | 31 ft | 14 kts | 100° |
| 2026-04-21 19:29 | 38.90738 | 16.25093 | 31 ft | 18 kts | 99° |
| 2026-04-21 19:29 | 38.90704 | 16.25260 | 30 ft | 20 kts | 120° |
| 2026-04-21 19:29 | 38.90629 | 16.25397 | 32 ft | 19 kts | 103° |
| 2026-04-21 19:30 | 38.90614 | 16.25562 | 31 ft | 18 kts | 98° |
| 2026-04-21 19:30 | 38.90595 | 16.25720 | 29 ft | 18 kts | 98° |
| 2026-04-21 19:30 | 38.90573 | 16.25873 | 31 ft | 17 kts | 97° |
| 2026-04-21 19:30 | 38.90557 | 16.26020 | 33 ft | 16 kts | 99° |
| 2026-04-21 19:31 | 38.90536 | 16.26160 | 31 ft | 15 kts | 118° |
| 2026-04-21 19:31 | 38.90498 | 16.26194 | 30 ft | 0 kts | 153° |
| 2026-04-21 19:32 | 38.90472 | 16.26210 | 30 ft | 12 kts | 154° |
| 2026-04-21 19:32 | 38.90382 | 16.26266 | 32 ft | 13 kts | 173° |
| 2026-04-21 19:32 | 38.90319 | 16.26226 | 32 ft | 8 kts | 237° |
| 2026-04-21 19:32 | 38.90315 | 16.26151 | 33 ft | 9 kts | 279° |
| 2026-04-21 19:33 | 38.90324 | 16.26078 | 31 ft | 18 kts | 279° |
| 2026-04-21 19:33 | 38.90412 | 16.25331 | 33 ft | 110 kts | 278° |
| 2026-04-21 19:33 | 38.90546 | 16.24092 | 39 ft | 167 kts | 274° |
| 2026-04-21 19:33 | 38.90675 | 16.22576 | 654 ft | 170 kts | 274° |
| 2026-04-21 19:34 | 38.90823 | 16.21093 | 1485 ft | 167 kts | 278° |
| 2026-04-21 19:34 | 38.91038 | 16.19510 | 1855 ft | 196 kts | 279° |
| 2026-04-21 19:34 | 38.91276 | 16.17673 | 2115 ft | 220 kts | 279° |
| 2026-04-21 19:34 | 38.91521 | 16.15653 | 2501 ft | 233 kts | 279° |
| 2026-04-21 19:35 | 38.91770 | 16.13544 | 2945 ft | 248 kts | 280° |
| 2026-04-21 19:35 | 38.93591 | 16.09694 | 4426 ft | 258 kts | 310° |
| 2026-04-21 19:35 | 38.94756 | 16.07950 | 5303 ft | 257 kts | 310° |
| 2026-04-21 19:36 | 38.95925 | 16.06198 | 6122 ft | 259 kts | 309° |
| 2026-04-21 19:36 | 38.97094 | 16.04440 | 6947 ft | 259 kts | 309° |
| 2026-04-21 19:36 | 38.98267 | 16.02671 | 7712 ft | 261 kts | 309° |
| 2026-04-21 19:36 | 38.99444 | 16.00891 | 8496 ft | 262 kts | 309° |
| 2026-04-21 19:37 | 39.00624 | 15.99101 | 9307 ft | 263 kts | 309° |
| 2026-04-21 19:37 | 39.01817 | 15.97287 | 10000 ft | 268 kts | 309° |
| 2026-04-21 19:37 | 39.03054 | 15.95419 | 10378 ft | 285 kts | 311° |
| 2026-04-21 19:37 | 39.04713 | 15.93852 | 10531 ft | 311 kts | 331° |
| 2026-04-21 19:38 | 39.06742 | 15.92651 | 10797 ft | 329 kts | 333° |
| 2026-04-21 19:38 | 39.08859 | 15.91434 | 11324 ft | 336 kts | 333° |
| 2026-04-21 19:38 | 39.10280 | 15.90618 | 11773 ft | 338 kts | 333° |
| 2026-04-21 19:38 | 39.13162 | 15.88952 | 12747 ft | 341 kts | 332° |
| 2026-04-21 19:39 | 39.15334 | 15.87686 | 13461 ft | 344 kts | 332° |
| 2026-04-21 19:39 | 39.17525 | 15.86402 | 14138 ft | 348 kts | 332° |
| 2026-04-21 19:39 | 39.19739 | 15.85103 | 14805 ft | 351 kts | 332° |
| 2026-04-21 19:39 | 39.21939 | 15.83808 | 15485 ft | 354 kts | 332° |
| 2026-04-21 19:40 | 39.24185 | 15.82484 | 16171 ft | 357 kts | 332° |
| 2026-04-21 19:40 | 39.26451 | 15.81145 | 16831 ft | 360 kts | 332° |
| 2026-04-21 19:40 | 39.28657 | 15.79612 | 17473 ft | 360 kts | 321° |
| 2026-04-21 19:40 | 39.30596 | 15.77558 | 18130 ft | 362 kts | 317° |
| 2026-04-21 19:41 | 39.32498 | 15.75405 | 18704 ft | 365 kts | 316° |
| 2026-04-21 19:41 | 39.34410 | 15.73224 | 19274 ft | 368 kts | 316° |
| 2026-04-21 19:41 | 39.36340 | 15.71037 | 19852 ft | 370 kts | 316° |
| 2026-04-21 19:41 | 39.38293 | 15.68842 | 20417 ft | 373 kts | 317° |
| 2026-04-21 19:42 | 39.40266 | 15.66640 | 20969 ft | 376 kts | 317° |
| 2026-04-21 19:42 | 39.42258 | 15.64424 | 21538 ft | 379 kts | 317° |
| 2026-04-21 19:42 | 39.44260 | 15.62203 | 22099 ft | 381 kts | 317° |
| 2026-04-21 19:42 | 39.46278 | 15.59964 | 22624 ft | 383 kts | 317° |
| 2026-04-21 19:43 | 39.48312 | 15.57709 | 23127 ft | 386 kts | 317° |
| 2026-04-21 19:43 | 39.50360 | 15.55435 | 23616 ft | 389 kts | 317° |
| 2026-04-21 19:43 | 39.52420 | 15.53146 | 24049 ft | 391 kts | 317° |
| 2026-04-21 19:43 | 39.54490 | 15.50846 | 24510 ft | 393 kts | 317° |
| 2026-04-21 19:44 | 39.56567 | 15.48536 | 24951 ft | 394 kts | 317° |
| 2026-04-21 19:44 | 39.58648 | 15.46218 | 25384 ft | 395 kts | 316° |
| 2026-04-21 19:44 | 39.60738 | 15.43890 | 25804 ft | 397 kts | 316° |
| 2026-04-21 19:44 | 39.62836 | 15.41551 | 26215 ft | 399 kts | 316° |
| 2026-04-21 19:45 | 39.64944 | 15.39201 | 26618 ft | 401 kts | 316° |
| 2026-04-21 19:45 | 39.67061 | 15.36836 | 27010 ft | 402 kts | 316° |
| 2026-04-21 19:45 | 39.69185 | 15.34458 | 27385 ft | 404 kts | 316° |
| 2026-04-21 19:45 | 39.71229 | 15.31955 | 27759 ft | 404 kts | 310° |
| 2026-04-21 19:46 | 39.72967 | 15.29097 | 28126 ft | 404 kts | 302° |
| 2026-04-21 19:46 | 39.74534 | 15.26068 | 28487 ft | 405 kts | 302° |
| 2026-04-21 19:46 | 39.76106 | 15.23020 | 28845 ft | 407 kts | 302° |
| 2026-04-21 19:46 | 39.77687 | 15.19964 | 29187 ft | 408 kts | 302° |
| 2026-04-21 19:47 | 39.79279 | 15.16897 | 29539 ft | 409 kts | 302° |
| 2026-04-21 19:47 | 39.80873 | 15.13837 | 29987 ft | 408 kts | 302° |
| 2026-04-21 19:47 | 39.82458 | 15.10800 | 30465 ft | 404 kts | 302° |
| 2026-04-21 19:47 | 39.84033 | 15.07784 | 30904 ft | 402 kts | 302° |
| 2026-04-21 19:48 | 39.85581 | 15.04820 | 31261 ft | 401 kts | 302° |
| 2026-04-21 19:48 | 39.87168 | 15.01778 | 31605 ft | 401 kts | 302° |
| 2026-04-21 19:48 | 39.88731 | 14.98780 | 31977 ft | 399 kts | 302° |
| 2026-04-21 19:48 | 39.90287 | 14.95793 | 32371 ft | 397 kts | 302° |
| 2026-04-21 19:49 | 39.91813 | 14.92861 | 32763 ft | 396 kts | 302° |
| 2026-04-21 19:49 | 39.93374 | 14.89859 | 33130 ft | 395 kts | 302° |
| 2026-04-21 19:49 | 39.94912 | 14.86900 | 33485 ft | 394 kts | 303° |
| 2026-04-21 19:49 | 39.96558 | 14.84119 | 33873 ft | 393 kts | 310° |
| 2026-04-21 19:50 | 39.97846 | 14.82394 | 34142 ft | 391 kts | 311° |
| 2026-04-21 19:50 | 40.00379 | 14.79057 | 34481 ft | 392 kts | 311° |
| 2026-04-21 19:50 | 40.02299 | 14.76526 | 34654 ft | 394 kts | 311° |
| 2026-04-21 19:50 | 40.04223 | 14.73982 | 34894 ft | 394 kts | 311° |
| 2026-04-21 19:51 | 40.06139 | 14.71437 | 35170 ft | 393 kts | 311° |
| 2026-04-21 19:51 | 40.08051 | 14.68889 | 35406 ft | 393 kts | 311° |
| 2026-04-21 19:51 | 40.09962 | 14.66334 | 35605 ft | 394 kts | 311° |
| 2026-04-21 19:51 | 40.11874 | 14.63773 | 35836 ft | 394 kts | 311° |
| 2026-04-21 19:52 | 40.13807 | 14.61180 | 36078 ft | 393 kts | 311° |
| 2026-04-21 19:52 | 40.15691 | 14.58649 | 36286 ft | 394 kts | 311° |
| 2026-04-21 19:52 | 40.17626 | 14.56047 | 36491 ft | 394 kts | 311° |
| 2026-04-21 19:52 | 40.19510 | 14.53511 | 36718 ft | 394 kts | 311° |
| 2026-04-21 19:53 | 40.21415 | 14.50945 | 36966 ft | 394 kts | 311° |
| 2026-04-21 19:53 | 40.23321 | 14.48377 | 37230 ft | 392 kts | 311° |
| 2026-04-21 19:53 | 40.25218 | 14.45818 | 37486 ft | 391 kts | 310° |
| 2026-04-21 19:53 | 40.27115 | 14.43256 | 37631 ft | 393 kts | 310° |
| 2026-04-21 19:54 | 40.29043 | 14.40650 | 37795 ft | 393 kts | 310° |
| 2026-04-21 19:54 | 40.30921 | 14.38109 | 37936 ft | 394 kts | 310° |
| 2026-04-21 19:54 | 40.32836 | 14.35514 | 37928 ft | 397 kts | 310° |
| 2026-04-21 19:55 | 40.36660 | 14.30332 | 37928 ft | 393 kts | 310° |
| 2026-04-21 19:55 | 40.40445 | 14.25194 | 37936 ft | 390 kts | 310° |
| 2026-04-21 19:56 | 40.44197 | 14.20089 | 37940 ft | 387 kts | 310° |
| 2026-04-21 19:56 | 40.47925 | 14.15009 | 37959 ft | 385 kts | 310° |
| 2026-04-21 19:57 | 40.51639 | 14.09938 | 37940 ft | 385 kts | 310° |
| 2026-04-21 19:57 | 40.55349 | 14.04864 | 37938 ft | 385 kts | 310° |
| 2026-04-21 19:58 | 40.59061 | 13.99778 | 37940 ft | 386 kts | 310° |
| 2026-04-21 19:58 | 40.62782 | 13.94671 | 37939 ft | 387 kts | 310° |
| 2026-04-21 19:59 | 40.66515 | 13.89541 | 37938 ft | 389 kts | 310° |
| 2026-04-21 19:59 | 40.70261 | 13.84382 | 37938 ft | 390 kts | 310° |
| 2026-04-21 20:00 | 40.74019 | 13.79198 | 37951 ft | 392 kts | 310° |
| 2026-04-21 20:00 | 40.77789 | 13.73990 | 37942 ft | 393 kts | 310° |
| 2026-04-21 20:01 | 40.81562 | 13.68767 | 37939 ft | 393 kts | 310° |
| 2026-04-21 20:01 | 40.85336 | 13.63535 | 37939 ft | 393 kts | 310° |
| 2026-04-21 20:02 | 40.88470 | 13.59182 | 37939 ft | 393 kts | 310° |
| 2026-04-21 20:02 | 40.92865 | 13.53067 | 37939 ft | 392 kts | 310° |
| 2026-04-21 20:03 | 40.96614 | 13.47842 | 37945 ft | 391 kts | 310° |
| 2026-04-21 20:03 | 40.99720 | 13.43505 | 37966 ft | 390 kts | 310° |
| 2026-04-21 20:04 | 41.03450 | 13.38289 | 37938 ft | 390 kts | 310° |
| 2026-04-21 20:04 | 41.07168 | 13.33081 | 37939 ft | 388 kts | 310° |
| 2026-04-21 20:05 | 41.10876 | 13.27878 | 37949 ft | 388 kts | 310° |
| 2026-04-21 20:05 | 41.14570 | 13.22684 | 37947 ft | 387 kts | 310° |
| 2026-04-21 20:06 | 41.18259 | 13.17489 | 37947 ft | 386 kts | 310° |
| 2026-04-21 20:06 | 41.21941 | 13.12294 | 37942 ft | 386 kts | 310° |
| 2026-04-21 20:07 | 41.25620 | 13.07094 | 37958 ft | 386 kts | 310° |
| 2026-04-21 20:07 | 41.29300 | 13.01884 | 37952 ft | 387 kts | 309° |
| 2026-04-21 20:08 | 41.32985 | 12.96656 | 37952 ft | 387 kts | 309° |
| 2026-04-21 20:08 | 41.36670 | 12.91420 | 37948 ft | 388 kts | 309° |
| 2026-04-21 20:09 | 41.40357 | 12.86172 | 37951 ft | 388 kts | 309° |
| 2026-04-21 20:09 | 41.44047 | 12.80911 | 37947 ft | 389 kts | 309° |
| 2026-04-21 20:10 | 41.47738 | 12.75638 | 37929 ft | 389 kts | 309° |
| 2026-04-21 20:10 | 41.51366 | 12.70447 | 37948 ft | 390 kts | 309° |
| 2026-04-21 20:11 | 41.55062 | 12.65149 | 37954 ft | 390 kts | 309° |
| 2026-04-21 20:11 | 41.58757 | 12.59842 | 37963 ft | 390 kts | 309° |
| 2026-04-21 20:12 | 41.62450 | 12.54529 | 37966 ft | 390 kts | 309° |
| 2026-04-21 20:12 | 41.66142 | 12.49207 | 37965 ft | 390 kts | 309° |
| 2026-04-21 20:13 | 41.69827 | 12.43887 | 37970 ft | 390 kts | 309° |
| 2026-04-21 20:13 | 41.73509 | 12.38560 | 37958 ft | 390 kts | 309° |
| 2026-04-21 20:14 | 41.77191 | 12.33224 | 37968 ft | 390 kts | 309° |
| 2026-04-21 20:14 | 41.80865 | 12.27891 | 37967 ft | 389 kts | 309° |
| 2026-04-21 20:15 | 41.84531 | 12.22560 | 37966 ft | 388 kts | 309° |
| 2026-04-21 20:15 | 41.88186 | 12.17234 | 38076 ft | 388 kts | 309° |
| 2026-04-21 20:16 | 41.91834 | 12.11908 | 38075 ft | 387 kts | 309° |
| 2026-04-21 20:16 | 41.95451 | 12.06619 | 38077 ft | 387 kts | 309° |
| 2026-04-21 20:17 | 41.99088 | 12.01290 | 38085 ft | 387 kts | 309° |
| 2026-04-21 20:17 | 42.02724 | 11.95953 | 38047 ft | 387 kts | 309° |
| 2026-04-21 20:18 | 42.06360 | 11.90606 | 38012 ft | 387 kts | 309° |
| 2026-04-21 20:18 | 42.09993 | 11.85255 | 37991 ft | 387 kts | 309° |
| 2026-04-21 20:19 | 42.13623 | 11.79898 | 37969 ft | 387 kts | 309° |
| 2026-04-21 20:19 | 42.17256 | 11.74525 | 37946 ft | 388 kts | 309° |
| 2026-04-21 20:20 | 42.20889 | 11.69145 | 37947 ft | 388 kts | 309° |
| 2026-04-21 20:20 | 42.24518 | 11.63760 | 37945 ft | 388 kts | 309° |
| 2026-04-21 20:21 | 42.28140 | 11.58374 | 37953 ft | 387 kts | 309° |
| 2026-04-21 20:21 | 42.31761 | 11.52981 | 37953 ft | 387 kts | 309° |
| 2026-04-21 20:22 | 42.35378 | 11.47583 | 37950 ft | 387 kts | 309° |
| 2026-04-21 20:22 | 42.40799 | 11.39475 | 37952 ft | 387 kts | 309° |
| 2026-04-21 20:23 | 42.44411 | 11.34061 | 37953 ft | 387 kts | 309° |
| 2026-04-21 20:23 | 42.48023 | 11.28636 | 37945 ft | 388 kts | 309° |
| 2026-04-21 20:24 | 42.51635 | 11.23200 | 37944 ft | 388 kts | 309° |
| 2026-04-21 20:24 | 42.55241 | 11.17765 | 37944 ft | 387 kts | 309° |
| 2026-04-21 20:25 | 42.58836 | 11.12335 | 37941 ft | 386 kts | 309° |
| 2026-04-21 20:25 | 42.62423 | 11.06907 | 37945 ft | 386 kts | 309° |
| 2026-04-21 20:26 | 42.66005 | 11.01478 | 37941 ft | 385 kts | 309° |
| 2026-04-21 20:26 | 42.69579 | 10.96048 | 37737 ft | 387 kts | 309° |
| 2026-04-21 20:27 | 42.71367 | 10.93329 | 37482 ft | 384 kts | 309° |
| 2026-04-21 20:27 | 42.73132 | 10.90644 | 37203 ft | 378 kts | 309° |
| 2026-04-21 20:27 | 42.74846 | 10.88036 | 36931 ft | 371 kts | 308° |
| 2026-04-21 20:27 | 42.76574 | 10.85403 | 36660 ft | 367 kts | 309° |
| 2026-04-21 20:28 | 42.78242 | 10.82857 | 36404 ft | 364 kts | 308° |
| 2026-04-21 20:28 | 42.79939 | 10.80263 | 36141 ft | 361 kts | 308° |
| 2026-04-21 20:28 | 42.81600 | 10.77722 | 35886 ft | 358 kts | 309° |
| 2026-04-21 20:28 | 42.83228 | 10.75231 | 35640 ft | 356 kts | 309° |
| 2026-04-21 20:29 | 42.84868 | 10.72718 | 35386 ft | 354 kts | 309° |
| 2026-04-21 20:29 | 42.86497 | 10.70220 | 35135 ft | 352 kts | 309° |
| 2026-04-21 20:29 | 42.88117 | 10.67733 | 34896 ft | 350 kts | 309° |
| 2026-04-21 20:29 | 42.89736 | 10.65245 | 34665 ft | 354 kts | 309° |
| 2026-04-21 20:30 | 42.91384 | 10.62709 | 34434 ft | 361 kts | 309° |
| 2026-04-21 20:30 | 42.93067 | 10.60115 | 34205 ft | 368 kts | 309° |
| 2026-04-21 20:30 | 42.94763 | 10.57501 | 34047 ft | 367 kts | 309° |
| 2026-04-21 20:30 | 42.96448 | 10.54907 | 33962 ft | 364 kts | 309° |
| 2026-04-21 20:31 | 42.99792 | 10.49750 | 33948 ft | 363 kts | 309° |
| 2026-04-21 20:31 | 43.03145 | 10.44565 | 33944 ft | 364 kts | 309° |
| 2026-04-21 20:32 | 43.06503 | 10.39363 | 33944 ft | 365 kts | 309° |
| 2026-04-21 20:32 | 43.09866 | 10.34147 | 33945 ft | 366 kts | 309° |
| 2026-04-21 20:33 | 43.13230 | 10.28918 | 33945 ft | 366 kts | 309° |
| 2026-04-21 20:33 | 43.16591 | 10.23685 | 33947 ft | 366 kts | 309° |
| 2026-04-21 20:34 | 43.19949 | 10.18447 | 33940 ft | 366 kts | 309° |
| 2026-04-21 20:34 | 43.23300 | 10.13211 | 33944 ft | 365 kts | 309° |
| 2026-04-21 20:35 | 43.26637 | 10.07989 | 33957 ft | 363 kts | 309° |
| 2026-04-21 20:35 | 43.29958 | 10.02784 | 33955 ft | 362 kts | 309° |
| 2026-04-21 20:36 | 43.33275 | 9.97576 | 33960 ft | 361 kts | 309° |
| 2026-04-21 20:36 | 43.36597 | 9.92405 | 33958 ft | 362 kts | 312° |
| 2026-04-21 20:37 | 43.40588 | 9.88149 | 33979 ft | 368 kts | 325° |
| 2026-04-21 20:37 | 43.45056 | 9.84715 | 33969 ft | 368 kts | 326° |
| 2026-04-21 20:38 | 43.49526 | 9.81293 | 33956 ft | 367 kts | 326° |
| 2026-04-21 20:38 | 43.53982 | 9.77860 | 33961 ft | 367 kts | 325° |
| 2026-04-21 20:39 | 43.58426 | 9.74419 | 33961 ft | 366 kts | 325° |
| 2026-04-21 20:39 | 43.62867 | 9.70970 | 33986 ft | 366 kts | 325° |
| 2026-04-21 20:40 | 43.67288 | 9.67535 | 33620 ft | 359 kts | 325° |
| 2026-04-21 20:40 | 43.69438 | 9.65865 | 33349 ft | 351 kts | 325° |
| 2026-04-21 20:40 | 43.71519 | 9.64245 | 33070 ft | 345 kts | 325° |
| 2026-04-21 20:41 | 43.73587 | 9.62633 | 32795 ft | 338 kts | 325° |
| 2026-04-21 20:41 | 43.75614 | 9.61051 | 32525 ft | 331 kts | 325° |
| 2026-04-21 20:41 | 43.77610 | 9.59491 | 32259 ft | 328 kts | 325° |
| 2026-04-21 20:41 | 43.79584 | 9.57945 | 32000 ft | 326 kts | 325° |
| 2026-04-21 20:42 | 43.81568 | 9.56389 | 31753 ft | 330 kts | 325° |
| 2026-04-21 20:42 | 43.83576 | 9.54812 | 31527 ft | 333 kts | 325° |
| 2026-04-21 20:42 | 43.85584 | 9.53239 | 31264 ft | 330 kts | 325° |
| 2026-04-21 20:42 | 43.87576 | 9.51679 | 31010 ft | 328 kts | 325° |
| 2026-04-21 20:43 | 43.89560 | 9.50124 | 30765 ft | 326 kts | 325° |
| 2026-04-21 20:43 | 43.91531 | 9.48578 | 30524 ft | 325 kts | 325° |
| 2026-04-21 20:43 | 43.93490 | 9.47039 | 30274 ft | 323 kts | 325° |
| 2026-04-21 20:43 | 43.95437 | 9.45506 | 30004 ft | 322 kts | 326° |
| 2026-04-21 20:44 | 43.97398 | 9.43991 | 29714 ft | 322 kts | 328° |
| 2026-04-21 20:44 | 43.99478 | 9.42790 | 29427 ft | 326 kts | 336° |
| 2026-04-21 20:44 | 44.01675 | 9.41974 | 29154 ft | 328 kts | 339° |
| 2026-04-21 20:44 | 44.03894 | 9.41241 | 28901 ft | 327 kts | 339° |
| 2026-04-21 20:45 | 44.06112 | 9.40523 | 28628 ft | 327 kts | 339° |
| 2026-04-21 20:45 | 44.08322 | 9.39807 | 28352 ft | 326 kts | 339° |
| 2026-04-21 20:45 | 44.10533 | 9.39087 | 28083 ft | 326 kts | 339° |
| 2026-04-21 20:45 | 44.12738 | 9.38364 | 27812 ft | 325 kts | 339° |
| 2026-04-21 20:46 | 44.14936 | 9.37641 | 27544 ft | 325 kts | 339° |
| 2026-04-21 20:46 | 44.17135 | 9.36915 | 27286 ft | 324 kts | 339° |
| 2026-04-21 20:46 | 44.19325 | 9.36189 | 27030 ft | 323 kts | 339° |
| 2026-04-21 20:46 | 44.21512 | 9.35464 | 26769 ft | 323 kts | 339° |
| 2026-04-21 20:47 | 44.23693 | 9.34740 | 26542 ft | 322 kts | 339° |
| 2026-04-21 20:47 | 44.25868 | 9.34017 | 26291 ft | 321 kts | 339° |
| 2026-04-21 20:47 | 44.28031 | 9.33297 | 26039 ft | 319 kts | 339° |
| 2026-04-21 20:47 | 44.30159 | 9.32589 | 25785 ft | 318 kts | 339° |
| 2026-04-21 20:48 | 44.32301 | 9.31875 | 25547 ft | 316 kts | 339° |
| 2026-04-21 20:48 | 44.34469 | 9.31153 | 25301 ft | 315 kts | 339° |
| 2026-04-21 20:48 | 44.36597 | 9.30442 | 25068 ft | 314 kts | 339° |
| 2026-04-21 20:48 | 44.38722 | 9.29731 | 24820 ft | 313 kts | 339° |
| 2026-04-21 20:49 | 44.40843 | 9.29021 | 24608 ft | 314 kts | 339° |
| 2026-04-21 20:49 | 44.42938 | 9.28319 | 24351 ft | 314 kts | 339° |
| 2026-04-21 20:49 | 44.45057 | 9.27610 | 24113 ft | 312 kts | 339° |
| 2026-04-21 20:49 | 44.47154 | 9.26910 | 23825 ft | 308 kts | 339° |
| 2026-04-21 20:50 | 44.49226 | 9.26217 | 23502 ft | 304 kts | 339° |
| 2026-04-21 20:50 | 44.51271 | 9.25532 | 23163 ft | 300 kts | 339° |
| 2026-04-21 20:50 | 44.52644 | 9.25072 | 22837 ft | 301 kts | 339° |
| 2026-04-21 20:50 | 44.54660 | 9.24391 | 22555 ft | 295 kts | 337° |
| 2026-04-21 20:51 | 44.56527 | 9.23292 | 21905 ft | 292 kts | 323° |
| 2026-04-21 20:51 | 44.58647 | 9.21025 | 21277 ft | 288 kts | 312° |
| 2026-04-21 20:51 | 44.59595 | 9.19683 | 21063 ft | 286 kts | 310° |
| 2026-04-21 20:51 | 44.61394 | 9.17005 | 20600 ft | 284 kts | 310° |
| 2026-04-21 20:52 | 44.62738 | 9.14978 | 20274 ft | 283 kts | 310° |
| 2026-04-21 20:52 | 44.63643 | 9.13617 | 20090 ft | 282 kts | 310° |
| 2026-04-21 20:52 | 44.64978 | 9.11613 | 19765 ft | 280 kts | 310° |
| 2026-04-21 20:52 | 44.66398 | 9.09787 | 19428 ft | 275 kts | 320° |
| 2026-04-21 20:53 | 44.67968 | 9.08269 | 18971 ft | 273 kts | 321° |
| 2026-04-21 20:53 | 44.69533 | 9.06779 | 18485 ft | 270 kts | 321° |
| 2026-04-21 20:53 | 44.71085 | 9.05299 | 17896 ft | 270 kts | 321° |
| 2026-04-21 20:53 | 44.72643 | 9.03807 | 17254 ft | 272 kts | 321° |
| 2026-04-21 20:54 | 44.74200 | 9.02313 | 16715 ft | 269 kts | 321° |
| 2026-04-21 20:54 | 44.75741 | 9.00840 | 16226 ft | 267 kts | 324° |
| 2026-04-21 20:54 | 44.77493 | 8.99891 | 16052 ft | 276 kts | 340° |
| 2026-04-21 20:54 | 44.79372 | 8.99284 | 15959 ft | 275 kts | 341° |
| 2026-04-21 20:55 | 44.81239 | 8.98696 | 15501 ft | 275 kts | 341° |
| 2026-04-21 20:55 | 44.83109 | 8.98108 | 14925 ft | 277 kts | 342° |
| 2026-04-21 20:55 | 44.84997 | 8.97512 | 14348 ft | 279 kts | 342° |
| 2026-04-21 20:55 | 44.86895 | 8.96912 | 13821 ft | 279 kts | 342° |
| 2026-04-21 20:56 | 44.88787 | 8.96313 | 13293 ft | 278 kts | 343° |
| 2026-04-21 20:56 | 44.90675 | 8.95713 | 12762 ft | 277 kts | 343° |
| 2026-04-21 20:56 | 44.92551 | 8.95116 | 12256 ft | 276 kts | 343° |
| 2026-04-21 20:56 | 44.94422 | 8.94520 | 11729 ft | 275 kts | 343° |
| 2026-04-21 20:57 | 44.96289 | 8.93923 | 11213 ft | 275 kts | 344° |
| 2026-04-21 20:57 | 44.98148 | 8.93329 | 10742 ft | 273 kts | 344° |
| 2026-04-21 20:57 | 44.99993 | 8.92739 | 10317 ft | 270 kts | 345° |
| 2026-04-21 20:57 | 45.01817 | 8.92155 | 9911 ft | 268 kts | 345° |
| 2026-04-21 20:58 | 45.03628 | 8.91575 | 9426 ft | 267 kts | 345° |
| 2026-04-21 20:58 | 45.05415 | 8.91001 | 9064 ft | 267 kts | 346° |
| 2026-04-21 20:58 | 45.07254 | 8.90410 | 8740 ft | 267 kts | 346° |
| 2026-04-21 20:58 | 45.09060 | 8.89830 | 8456 ft | 266 kts | 346° |
| 2026-04-21 20:59 | 45.10860 | 8.89251 | 8175 ft | 264 kts | 346° |
| 2026-04-21 20:59 | 45.12650 | 8.88675 | 7899 ft | 263 kts | 346° |
| 2026-04-21 20:59 | 45.14434 | 8.88101 | 7625 ft | 262 kts | 346° |
| 2026-04-21 20:59 | 45.16211 | 8.87528 | 7352 ft | 262 kts | 347° |
| 2026-04-21 21:00 | 45.17983 | 8.86957 | 7079 ft | 261 kts | 347° |
| 2026-04-21 21:00 | 45.19748 | 8.86388 | 6823 ft | 259 kts | 347° |
| 2026-04-21 21:00 | 45.21479 | 8.85830 | 6565 ft | 258 kts | 347° |
| 2026-04-21 21:00 | 45.23229 | 8.85265 | 6299 ft | 258 kts | 347° |
| 2026-04-21 21:01 | 45.24978 | 8.84699 | 6039 ft | 257 kts | 348° |
| 2026-04-21 21:01 | 45.26696 | 8.84144 | 5919 ft | 251 kts | 348° |
| 2026-04-21 21:01 | 45.28380 | 8.83599 | 5834 ft | 244 kts | 349° |
| 2026-04-21 21:01 | 45.30015 | 8.83070 | 5796 ft | 239 kts | 348° |
| 2026-04-21 21:02 | 45.31635 | 8.82546 | 5727 ft | 239 kts | 348° |
| 2026-04-21 21:02 | 45.33268 | 8.82019 | 5663 ft | 241 kts | 348° |
| 2026-04-21 21:02 | 45.34894 | 8.81410 | 5588 ft | 241 kts | 345° |
| 2026-04-21 21:02 | 45.36480 | 8.80788 | 5498 ft | 230 kts | 348° |
| 2026-04-21 21:03 | 45.37985 | 8.80302 | 5396 ft | 217 kts | 350° |
| 2026-04-21 21:03 | 45.39449 | 8.79881 | 5115 ft | 212 kts | 351° |
| 2026-04-21 21:03 | 45.40875 | 8.79484 | 4851 ft | 207 kts | 351° |
| 2026-04-21 21:03 | 45.42271 | 8.79097 | 4572 ft | 202 kts | 352° |
| 2026-04-21 21:04 | 45.43640 | 8.78718 | 4297 ft | 199 kts | 352° |
| 2026-04-21 21:04 | 45.44988 | 8.78345 | 4027 ft | 197 kts | 352° |
| 2026-04-21 21:04 | 45.46324 | 8.77975 | 3773 ft | 194 kts | 352° |
| 2026-04-21 21:04 | 45.47648 | 8.77608 | 3515 ft | 193 kts | 353° |
| 2026-04-21 21:05 | 45.48971 | 8.77242 | 3251 ft | 194 kts | 353° |
| 2026-04-21 21:05 | 45.50295 | 8.76875 | 2992 ft | 194 kts | 353° |
| 2026-04-21 21:05 | 45.51622 | 8.76508 | 2728 ft | 193 kts | 353° |
| 2026-04-21 21:05 | 45.52919 | 8.76146 | 2468 ft | 185 kts | 353° |
| 2026-04-21 21:06 | 45.54128 | 8.75810 | 2266 ft | 169 kts | 353° |
| 2026-04-21 21:06 | 45.55237 | 8.75503 | 2044 ft | 152 kts | 353° |
| 2026-04-21 21:06 | 45.56261 | 8.75221 | 1810 ft | 147 kts | 353° |
| 2026-04-21 21:06 | 45.57264 | 8.74939 | 1659 ft | 145 kts | 352° |
| 2026-04-21 21:07 | 45.58251 | 8.74647 | 1504 ft | 147 kts | 353° |
| 2026-04-21 21:07 | 45.59263 | 8.74375 | 1316 ft | 147 kts | 353° |
| 2026-04-21 21:07 | 45.60263 | 8.74112 | 1051 ft | 145 kts | 351° |
| 2026-04-21 21:07 | 45.61254 | 8.73832 | 878 ft | 145 kts | 351° |
| 2026-04-21 21:08 | 45.62236 | 8.73564 | 746 ft | 136 kts | 348° |
| 2026-04-21 21:08 | 45.62976 | 8.73356 | 741 ft | 66 kts | 346° |
| 2026-04-21 21:08 | 45.63225 | 8.73135 | 748 ft | 29 kts | 312° |
| 2026-04-21 21:08 | 45.63324 | 8.72936 | 748 ft | 20 kts | 304° |
| 2026-04-21 21:09 | 45.63347 | 8.72886 | 749 ft | 2 kts | 304° |
| 2026-04-21 21:09 | 45.63355 | 8.72870 | 750 ft | 2 kts | 304° |
| 2026-04-21 21:09 | 45.63391 | 8.72783 | 748 ft | 19 kts | 287° |
| 2026-04-21 21:09 | 45.63395 | 8.72559 | 750 ft | 24 kts | 259° |
| 2026-04-21 21:10 | 45.63369 | 8.72360 | 748 ft | 18 kts | 259° |
| 2026-04-21 21:10 | 45.63345 | 8.72183 | 743 ft | 18 kts | 259° |
| 2026-04-21 21:10 | 45.63321 | 8.72008 | 749 ft | 16 kts | 253° |
| 2026-04-21 21:10 | 45.63224 | 8.71984 | 748 ft | 16 kts | 170° |
| 2026-04-21 21:11 | 45.63120 | 8.72009 | 749 ft | 15 kts | 169° |
| 2026-04-21 21:11 | 45.63015 | 8.72040 | 749 ft | 19 kts | 168° |
| 2026-04-21 21:11 | 45.62872 | 8.72080 | 750 ft | 22 kts | 169° |
| 2026-04-21 21:11 | 45.62723 | 8.72119 | 751 ft | 20 kts | 182° |
| 2026-04-21 21:12 | 45.62666 | 8.71950 | 748 ft | 22 kts | 260° |
| 2026-04-21 21:12 | 45.62587 | 8.71846 | 750 ft | 17 kts | 165° |
| 2026-04-21 21:12 | 45.62487 | 8.71874 | 751 ft | 7 kts | 171° |
| 2026-04-21 21:12 | 45.62467 | 8.71843 | 748 ft | 5 kts | 256° |
| 2026-04-21 21:13 | 45.62460 | 8.71793 | 752 ft | 5 kts | 259° |
| 2026-04-21 21:13 | 45.62458 | 8.71777 | 752 ft | 0 kts | 259° |